sensor_id;sensor_type;location;lat;lon;timestamp;pressure;altitude;pressure_sealevel;temperature;humidity
10115;BME280;5097;43.260;27.812;2023-05-03T00:02:16;100887.59;;;11.32;88.96
10115;BME280;5097;43.260;27.812;2023-05-03T00:05:00;100888.06;;;11.42;88.38
10115;BME280;5097;43.260;27.812;2023-05-03T00:07:50;100879.22;;;11.22;89.28
10115;BME280;5097;43.260;27.812;2023-05-03T00:10:34;100884.78;;;11.16;89.15
10115;BME280;5097;43.260;27.812;2023-05-03T00:13:18;100890.72;;;11.42;87.63
10115;BME280;5097;43.260;27.812;2023-05-03T00:16:02;100871.22;;;11.23;87.32
10115;BME280;5097;43.260;27.812;2023-05-03T00:18:46;100867.56;;;11.26;87.35
10115;BME280;5097;43.260;27.812;2023-05-03T00:21:30;100881.19;;;11.17;89.18
10115;BME280;5097;43.260;27.812;2023-05-03T00:24:16;100873.66;;;11.07;89.50
10115;BME280;5097;43.260;27.812;2023-05-03T00:27:00;100873.25;;;11.17;88.08
10115;BME280;5097;43.260;27.812;2023-05-03T00:29:44;100874.97;;;11.18;87.52
10115;BME280;5097;43.260;27.812;2023-05-03T00:32:28;100865.72;;;11.28;87.22
10115;BME280;5097;43.260;27.812;2023-05-03T00:35:12;100866.78;;;11.24;86.85
10115;BME280;5097;43.260;27.812;2023-05-03T00:37:55;100859.03;;;11.19;86.13
10115;BME280;5097;43.260;27.812;2023-05-03T00:40:41;100859.38;;;11.32;85.32
10115;BME280;5097;43.260;27.812;2023-05-03T00:43:25;100864.38;;;11.38;84.97
10115;BME280;5097;43.260;27.812;2023-05-03T00:46:09;100866.44;;;11.32;85.25
10115;BME280;5097;43.260;27.812;2023-05-03T00:48:59;100849.97;;;11.25;84.22
10115;BME280;5097;43.260;27.812;2023-05-03T00:51:43;100863.34;;;11.22;84.24
10115;BME280;5097;43.260;27.812;2023-05-03T00:54:28;100838.78;;;11.20;83.47
10115;BME280;5097;43.260;27.812;2023-05-03T00:57:16;100832.00;;;11.13;83.19
10115;BME280;5097;43.260;27.812;2023-05-03T01:00:00;100834.41;;;11.19;82.42
10115;BME280;5097;43.260;27.812;2023-05-03T01:02:47;100851.94;;;11.40;81.56
10115;BME280;5097;43.260;27.812;2023-05-03T01:05:36;100843.00;;;11.24;82.50
10115;BME280;5097;43.260;27.812;2023-05-03T01:08:29;100813.00;;;11.04;83.72
10115;BME280;5097;43.260;27.812;2023-05-03T01:11:19;100844.56;;;11.07;85.54
10115;BME280;5097;43.260;27.812;2023-05-03T01:14:11;100842.00;;;11.06;86.80
10115;BME280;5097;43.260;27.812;2023-05-03T01:17:03;100843.78;;;10.85;87.92
10115;BME280;5097;43.260;27.812;2023-05-03T01:19:51;100850.41;;;10.95;87.61
10115;BME280;5097;43.260;27.812;2023-05-03T01:22:42;100841.28;;;10.82;88.11
10115;BME280;5097;43.260;27.812;2023-05-03T01:25:29;100845.28;;;10.70;88.33
10115;BME280;5097;43.260;27.812;2023-05-03T01:28:14;100843.78;;;10.64;88.01
10115;BME280;5097;43.260;27.812;2023-05-03T01:30:58;100850.13;;;10.81;88.25
10115;BME280;5097;43.260;27.812;2023-05-03T01:33:48;100796.06;;;10.24;89.10
10115;BME280;5097;43.260;27.812;2023-05-03T01:36:36;100850.94;;;10.83;87.98
10115;BME280;5097;43.260;27.812;2023-05-03T01:39:23;100859.63;;;10.85;88.70
10115;BME280;5097;43.260;27.812;2023-05-03T01:42:10;100842.00;;;10.85;87.57
10115;BME280;5097;43.260;27.812;2023-05-03T01:44:55;100834.66;;;10.51;89.63
10115;BME280;5097;43.260;27.812;2023-05-03T01:47:39;100852.66;;;10.84;88.23
10115;BME280;5097;43.260;27.812;2023-05-03T01:50:23;100849.22;;;10.82;87.88
10115;BME280;5097;43.260;27.812;2023-05-03T01:53:07;100849.22;;;10.82;87.98
10115;BME280;5097;43.260;27.812;2023-05-03T01:55:51;100856.88;;;10.88;87.28
10115;BME280;5097;43.260;27.812;2023-05-03T01:58:36;100840.88;;;10.91;87.21
10115;BME280;5097;43.260;27.812;2023-05-03T02:01:20;100836.91;;;10.81;86.91
10115;BME280;5097;43.260;27.812;2023-05-03T02:04:04;100841.16;;;11.05;86.66
10115;BME280;5097;43.260;27.812;2023-05-03T02:06:48;100842.88;;;11.06;86.19
10115;BME280;5097;43.260;27.812;2023-05-03T02:09:32;100841.34;;;11.01;86.04
10115;BME280;5097;43.260;27.812;2023-05-03T02:12:16;100848.03;;;11.10;85.82
10115;BME280;5097;43.260;27.812;2023-05-03T02:15:02;100846.28;;;11.09;85.40
10115;BME280;5097;43.260;27.812;2023-05-03T02:17:47;100852.91;;;10.98;85.07
10115;BME280;5097;43.260;27.812;2023-05-03T02:20:32;100847.38;;;10.84;86.13
10115;BME280;5097;43.260;27.812;2023-05-03T02:23:19;100845.91;;;10.77;86.92
10115;BME280;5097;43.260;27.812;2023-05-03T02:26:03;100842.59;;;10.71;87.31
10115;BME280;5097;43.260;27.812;2023-05-03T02:28:48;100837.81;;;10.59;87.40
10115;BME280;5097;43.260;27.812;2023-05-03T02:31:33;100831.56;;;10.62;87.24
10115;BME280;5097;43.260;27.812;2023-05-03T02:34:18;100848.88;;;10.69;87.03
10115;BME280;5097;43.260;27.812;2023-05-03T02:37:02;100848.09;;;10.45;87.81
10115;BME280;5097;43.260;27.812;2023-05-03T02:39:48;100859.94;;;10.56;87.52
10115;BME280;5097;43.260;27.812;2023-05-03T02:42:32;100858.28;;;10.54;87.55
10115;BME280;5097;43.260;27.812;2023-05-03T02:45:16;100850.50;;;10.51;87.61
10115;BME280;5097;43.260;27.812;2023-05-03T02:48:01;100839.53;;;10.39;88.22
10115;BME280;5097;43.260;27.812;2023-05-03T02:50:45;100848.28;;;10.62;87.01
10115;BME280;5097;43.260;27.812;2023-05-03T02:53:29;100855.63;;;10.54;88.39
10115;BME280;5097;43.260;27.812;2023-05-03T02:56:17;100856.38;;;10.35;88.91
10115;BME280;5097;43.260;27.812;2023-05-03T02:59:01;100865.72;;;10.44;89.12
10115;BME280;5097;43.260;27.812;2023-05-03T03:01:45;100868.81;;;10.55;88.48
10115;BME280;5097;43.260;27.812;2023-05-03T03:04:31;100867.13;;;10.31;90.27
10115;BME280;5097;43.260;27.812;2023-05-03T03:07:15;100860.25;;;10.49;90.03
10115;BME280;5097;43.260;27.812;2023-05-03T03:09:59;100859.66;;;10.42;90.02
10115;BME280;5097;43.260;27.812;2023-05-03T03:12:45;100863.16;;;10.43;91.85
10115;BME280;5097;43.260;27.812;2023-05-03T03:15:38;100851.09;;;10.57;92.25
10115;BME280;5097;43.260;27.812;2023-05-03T03:18:22;100867.19;;;10.73;91.75
10115;BME280;5097;43.260;27.812;2023-05-03T03:21:08;100866.00;;;11.01;90.88
10115;BME280;5097;43.260;27.812;2023-05-03T03:23:52;100868.25;;;11.11;90.26
10115;BME280;5097;43.260;27.812;2023-05-03T03:26:35;100863.88;;;11.10;90.53
10115;BME280;5097;43.260;27.812;2023-05-03T03:29:19;100828.88;;;10.84;90.94
10115;BME280;5097;43.260;27.812;2023-05-03T03:32:05;100864.53;;;10.94;91.25
10115;BME280;5097;43.260;27.812;2023-05-03T03:34:49;100852.06;;;10.98;91.55
10115;BME280;5097;43.260;27.812;2023-05-03T03:37:36;100873.25;;;11.37;90.41
10115;BME280;5097;43.260;27.812;2023-05-03T03:40:21;100882.13;;;11.36;90.98
10115;BME280;5097;43.260;27.812;2023-05-03T03:43:07;100883.44;;;11.47;90.01
10115;BME280;5097;43.260;27.812;2023-05-03T03:45:52;100887.50;;;11.54;90.01
10115;BME280;5097;43.260;27.812;2023-05-03T03:48:37;100878.16;;;11.66;89.17
10115;BME280;5097;43.260;27.812;2023-05-03T03:51:21;100891.47;;;11.64;89.69
10115;BME280;5097;43.260;27.812;2023-05-03T03:54:06;100885.81;;;11.72;89.72
10115;BME280;5097;43.260;27.812;2023-05-03T03:56:55;100878.97;;;11.87;89.33
10115;BME280;5097;43.260;27.812;2023-05-03T03:59:39;100878.16;;;11.85;88.80
10115;BME280;5097;43.260;27.812;2023-05-03T04:02:23;100887.13;;;12.01;88.42
10115;BME280;5097;43.260;27.812;2023-05-03T04:05:08;100880.63;;;12.09;87.25
10115;BME280;5097;43.260;27.812;2023-05-03T04:07:52;100884.19;;;12.07;87.84
10115;BME280;5097;43.260;27.812;2023-05-03T04:10:37;100884.81;;;12.32;86.93
10115;BME280;5097;43.260;27.812;2023-05-03T04:13:22;100879.19;;;12.74;84.78
10115;BME280;5097;43.260;27.812;2023-05-03T04:16:09;100889.31;;;12.49;86.12
10115;BME280;5097;43.260;27.812;2023-05-03T04:18:53;100886.88;;;12.44;87.31
10115;BME280;5097;43.260;27.812;2023-05-03T04:21:37;100891.75;;;12.88;85.44
10115;BME280;5097;43.260;27.812;2023-05-03T04:24:21;100866.88;;;12.91;84.88
10115;BME280;5097;43.260;27.812;2023-05-03T04:27:07;100890.59;;;12.77;85.27
10115;BME280;5097;43.260;27.812;2023-05-03T04:29:53;100889.63;;;12.78;85.78
10115;BME280;5097;43.260;27.812;2023-05-03T04:32:37;100884.03;;;13.01;84.89
10115;BME280;5097;43.260;27.812;2023-05-03T04:35:25;100894.66;;;13.01;84.66
10115;BME280;5097;43.260;27.812;2023-05-03T04:38:12;100891.84;;;13.39;82.15
10115;BME280;5097;43.260;27.812;2023-05-03T04:40:56;100887.34;;;13.57;81.56
10115;BME280;5097;43.260;27.812;2023-05-03T04:43:41;100900.97;;;13.67;80.78
10115;BME280;5097;43.260;27.812;2023-05-03T04:46:26;100887.91;;;13.80;79.08
10115;BME280;5097;43.260;27.812;2023-05-03T04:49:11;100889.78;;;14.26;78.27
10115;BME280;5097;43.260;27.812;2023-05-03T04:51:54;100897.56;;;14.45;75.22
10115;BME280;5097;43.260;27.812;2023-05-03T04:54:40;100892.59;;;14.55;73.66
10115;BME280;5097;43.260;27.812;2023-05-03T04:57:24;100903.81;;;15.06;72.14
10115;BME280;5097;43.260;27.812;2023-05-03T05:00:10;100890.00;;;15.45;69.45
10115;BME280;5097;43.260;27.812;2023-05-03T05:02:59;100898.38;;;15.96;67.36
10115;BME280;5097;43.260;27.812;2023-05-03T05:05:45;100910.25;;;15.33;67.95
10115;BME280;5097;43.260;27.812;2023-05-03T05:08:29;100923.16;;;15.24;69.16
10115;BME280;5097;43.260;27.812;2023-05-03T05:11:13;100925.38;;;15.47;68.44
10115;BME280;5097;43.260;27.812;2023-05-03T05:13:59;100924.81;;;15.70;66.61
10115;BME280;5097;43.260;27.812;2023-05-03T05:16:44;100906.81;;;14.86;68.78
10115;BME280;5097;43.260;27.812;2023-05-03T05:19:29;100933.16;;;15.50;67.34
10115;BME280;5097;43.260;27.812;2023-05-03T05:22:13;100932.03;;;15.39;67.26
10115;BME280;5097;43.260;27.812;2023-05-03T05:25:03;100918.25;;;15.76;66.09
10115;BME280;5097;43.260;27.812;2023-05-03T05:27:47;100938.69;;;16.33;64.05
10115;BME280;5097;43.260;27.812;2023-05-03T05:30:31;100943.41;;;16.42;62.80
10115;BME280;5097;43.260;27.812;2023-05-03T05:33:18;100934.94;;;15.94;63.51
10115;BME280;5097;43.260;27.812;2023-05-03T05:36:04;100893.22;;;15.64;64.48
10115;BME280;5097;43.260;27.812;2023-05-03T05:38:49;100932.22;;;15.65;64.98
10115;BME280;5097;43.260;27.812;2023-05-03T05:41:32;100937.16;;;14.98;66.25
10115;BME280;5097;43.260;27.812;2023-05-03T05:44:16;100935.28;;;15.45;65.29
10115;BME280;5097;43.260;27.812;2023-05-03T05:47:02;100943.50;;;15.85;62.48
10115;BME280;5097;43.260;27.812;2023-05-03T05:49:52;100920.13;;;16.32;60.87
10115;BME280;5097;43.260;27.812;2023-05-03T05:52:36;100926.94;;;16.50;59.92
10115;BME280;5097;43.260;27.812;2023-05-03T05:55:21;100907.59;;;16.47;59.08
10115;BME280;5097;43.260;27.812;2023-05-03T05:58:06;100922.75;;;16.86;58.30
10115;BME280;5097;43.260;27.812;2023-05-03T06:00:57;100925.78;;;16.67;57.19
10115;BME280;5097;43.260;27.812;2023-05-03T06:03:45;100925.13;;;16.36;56.45
10115;BME280;5097;43.260;27.812;2023-05-03T06:06:30;100929.91;;;16.86;56.12
10115;BME280;5097;43.260;27.812;2023-05-03T06:09:14;100961.22;;;17.24;56.56
10115;BME280;5097;43.260;27.812;2023-05-03T06:12:05;100910.25;;;15.76;55.03
10115;BME280;5097;43.260;27.812;2023-05-03T06:14:52;100957.47;;;16.03;54.33
10115;BME280;5097;43.260;27.812;2023-05-03T06:17:49;100969.94;;;16.17;55.94
10115;BME280;5097;43.260;27.812;2023-05-03T06:20:33;100936.28;;;16.70;53.14
10115;BME280;5097;43.260;27.812;2023-05-03T06:23:19;100936.03;;;16.19;55.17
10115;BME280;5097;43.260;27.812;2023-05-03T06:26:06;100947.91;;;15.70;54.47
10115;BME280;5097;43.260;27.812;2023-05-03T06:28:50;100952.72;;;15.94;54.38
10115;BME280;5097;43.260;27.812;2023-05-03T06:31:36;100941.25;;;16.35;53.72
10115;BME280;5097;43.260;27.812;2023-05-03T06:34:24;100948.22;;;16.23;51.87
10115;BME280;5097;43.260;27.812;2023-05-03T06:37:10;100928.13;;;16.59;50.87
10115;BME280;5097;43.260;27.812;2023-05-03T06:39:55;100958.31;;;16.18;52.31
10115;BME280;5097;43.260;27.812;2023-05-03T06:42:39;100890.81;;;16.45;51.41
10115;BME280;5097;43.260;27.812;2023-05-03T06:45:27;100926.88;;;16.23;53.38
10115;BME280;5097;43.260;27.812;2023-05-03T06:48:12;100955.06;;;16.27;52.17
10115;BME280;5097;43.260;27.812;2023-05-03T06:50:58;100947.91;;;16.97;50.24
10115;BME280;5097;43.260;27.812;2023-05-03T06:53:42;100915.78;;;16.71;49.08
10115;BME280;5097;43.260;27.812;2023-05-03T06:56:29;100899.16;;;15.84;50.10
10115;BME280;5097;43.260;27.812;2023-05-03T06:59:13;100933.94;;;16.09;50.87
10115;BME280;5097;43.260;27.812;2023-05-03T07:01:57;100915.16;;;16.53;49.01
10115;BME280;5097;43.260;27.812;2023-05-03T07:04:41;100954.53;;;16.76;49.23
10115;BME280;5097;43.260;27.812;2023-05-03T07:07:25;100943.66;;;17.20;47.45
10115;BME280;5097;43.260;27.812;2023-05-03T07:10:09;100957.75;;;17.09;47.47
10115;BME280;5097;43.260;27.812;2023-05-03T07:12:55;100959.66;;;16.52;47.32
10115;BME280;5097;43.260;27.812;2023-05-03T07:15:39;100964.81;;;17.10;46.71
10115;BME280;5097;43.260;27.812;2023-05-03T07:18:23;100944.19;;;16.72;45.80
10115;BME280;5097;43.260;27.812;2023-05-03T07:21:07;100943.59;;;16.39;46.21
10115;BME280;5097;43.260;27.812;2023-05-03T07:23:51;100965.94;;;16.51;46.32
10115;BME280;5097;43.260;27.812;2023-05-03T07:26:35;100953.47;;;17.06;44.67
10115;BME280;5097;43.260;27.812;2023-05-03T07:29:20;100963.97;;;17.22;44.50
10115;BME280;5097;43.260;27.812;2023-05-03T07:32:04;100970.00;;;17.90;43.91
10115;BME280;5097;43.260;27.812;2023-05-03T07:34:48;100968.25;;;17.25;41.59
10115;BME280;5097;43.260;27.812;2023-05-03T07:37:32;100976.41;;;18.14;41.65
10115;BME280;5097;43.260;27.812;2023-05-03T07:40:17;100985.72;;;18.58;39.51
10115;BME280;5097;43.260;27.812;2023-05-03T07:43:01;100960.28;;;17.76;41.58
10115;BME280;5097;43.260;27.812;2023-05-03T07:45:47;100984.03;;;18.81;41.58
10115;BME280;5097;43.260;27.812;2023-05-03T07:48:31;100984.06;;;19.17;40.86
10115;BME280;5097;43.260;27.812;2023-05-03T07:51:15;100969.97;;;19.26;38.86
10115;BME280;5097;43.260;27.812;2023-05-03T07:53:58;100990.75;;;18.13;40.20
10115;BME280;5097;43.260;27.812;2023-05-03T07:56:43;100989.78;;;18.88;40.21
10115;BME280;5097;43.260;27.812;2023-05-03T07:59:27;101014.28;;;18.07;38.40
10115;BME280;5097;43.260;27.812;2023-05-03T08:02:12;101028.06;;;18.01;42.55
10115;BME280;5097;43.260;27.812;2023-05-03T08:04:56;101049.78;;;18.09;40.41
10115;BME280;5097;43.260;27.812;2023-05-03T08:07:40;101044.44;;;18.09;42.59
10115;BME280;5097;43.260;27.812;2023-05-03T08:10:24;101031.56;;;18.40;42.58
10115;BME280;5097;43.260;27.812;2023-05-03T08:13:08;101037.78;;;18.41;43.45
10115;BME280;5097;43.260;27.812;2023-05-03T08:15:53;101047.34;;;18.69;42.78
10115;BME280;5097;43.260;27.812;2023-05-03T08:18:38;101046.81;;;18.64;43.00
10115;BME280;5097;43.260;27.812;2023-05-03T08:21:22;101043.72;;;18.57;43.97
10115;BME280;5097;43.260;27.812;2023-05-03T08:24:07;101042.09;;;19.29;41.32
10115;BME280;5097;43.260;27.812;2023-05-03T08:26:52;101038.63;;;19.16;40.92
10115;BME280;5097;43.260;27.812;2023-05-03T08:29:38;101037.53;;;19.18;41.30
10115;BME280;5097;43.260;27.812;2023-05-03T08:32:22;101038.44;;;19.06;40.16
10115;BME280;5097;43.260;27.812;2023-05-03T08:35:08;101035.97;;;19.27;40.44
10115;BME280;5097;43.260;27.812;2023-05-03T08:37:55;101043.50;;;19.22;40.42
10115;BME280;5097;43.260;27.812;2023-05-03T08:40:39;101043.59;;;19.45;40.86
10115;BME280;5097;43.260;27.812;2023-05-03T08:43:26;101045.31;;;19.57;40.47
10115;BME280;5097;43.260;27.812;2023-05-03T08:46:11;101064.69;;;19.85;40.50
10115;BME280;5097;43.260;27.812;2023-05-03T08:48:55;101061.22;;;19.71;40.81
10115;BME280;5097;43.260;27.812;2023-05-03T08:51:41;101048.84;;;19.93;40.72
10115;BME280;5097;43.260;27.812;2023-05-03T08:54:28;101033.63;;;19.93;39.95
10115;BME280;5097;43.260;27.812;2023-05-03T08:57:13;101031.06;;;19.92;40.33
10115;BME280;5097;43.260;27.812;2023-05-03T08:59:58;101063.03;;;20.18;40.48
10115;BME280;5097;43.260;27.812;2023-05-03T09:02:47;101052.28;;;19.95;40.87
10115;BME280;5097;43.260;27.812;2023-05-03T09:05:34;101050.56;;;18.62;41.77
10115;BME280;5097;43.260;27.812;2023-05-03T09:08:22;101058.34;;;19.15;41.71
10115;BME280;5097;43.260;27.812;2023-05-03T09:11:19;101036.06;;;19.14;42.17
10115;BME280;5097;43.260;27.812;2023-05-03T09:14:09;101030.84;;;18.75;43.32
10115;BME280;5097;43.260;27.812;2023-05-03T09:16:53;100994.44;;;17.33;45.86
10115;BME280;5097;43.260;27.812;2023-05-03T09:19:48;100985.59;;;18.35;44.25
10115;BME280;5097;43.260;27.812;2023-05-03T09:22:34;100982.59;;;18.64;41.44
10115;BME280;5097;43.260;27.812;2023-05-03T09:25:20;100995.69;;;18.80;41.46
10115;BME280;5097;43.260;27.812;2023-05-03T09:28:04;100999.34;;;19.03;40.85
10115;BME280;5097;43.260;27.812;2023-05-03T09:30:49;101017.81;;;18.95;41.08
10115;BME280;5097;43.260;27.812;2023-05-03T09:33:46;100992.50;;;19.23;40.29
10115;BME280;5097;43.260;27.812;2023-05-03T09:36:44;100982.81;;;18.98;39.20
10115;BME280;5097;43.260;27.812;2023-05-03T09:39:29;101013.59;;;19.28;39.03
10115;BME280;5097;43.260;27.812;2023-05-03T09:42:16;101018.44;;;18.62;39.40
10115;BME280;5097;43.260;27.812;2023-05-03T09:45:01;101004.34;;;19.32;37.95
10115;BME280;5097;43.260;27.812;2023-05-03T09:47:48;101005.19;;;19.33;39.04
10115;BME280;5097;43.260;27.812;2023-05-03T09:50:36;100998.47;;;19.27;37.70
10115;BME280;5097;43.260;27.812;2023-05-03T09:53:20;100968.63;;;18.72;39.13
10115;BME280;5097;43.260;27.812;2023-05-03T09:56:07;100992.97;;;19.17;38.03
10115;BME280;5097;43.260;27.812;2023-05-03T09:58:55;100998.53;;;18.66;36.38
10115;BME280;5097;43.260;27.812;2023-05-03T10:01:40;100962.31;;;18.73;36.83
10115;BME280;5097;43.260;27.812;2023-05-03T10:04:26;100988.94;;;19.12;36.97
10115;BME280;5097;43.260;27.812;2023-05-03T10:07:12;100966.84;;;19.32;34.99
10115;BME280;5097;43.260;27.812;2023-05-03T10:09:57;100972.44;;;19.29;35.69
10115;BME280;5097;43.260;27.812;2023-05-03T10:12:42;100942.91;;;19.06;34.14
10115;BME280;5097;43.260;27.812;2023-05-03T10:15:28;100935.66;;;19.31;34.63
10115;BME280;5097;43.260;27.812;2023-05-03T10:18:14;100956.41;;;19.05;35.25
10115;BME280;5097;43.260;27.812;2023-05-03T10:21:02;100971.81;;;19.95;35.62
10115;BME280;5097;43.260;27.812;2023-05-03T10:24:10;100959.34;;;19.60;32.33
10115;BME280;5097;43.260;27.812;2023-05-03T10:26:55;100915.78;;;18.87;34.40
10115;BME280;5097;43.260;27.812;2023-05-03T10:30:00;100962.38;;;19.08;33.96
10115;BME280;5097;43.260;27.812;2023-05-03T10:32:48;100965.75;;;18.99;33.02
10115;BME280;5097;43.260;27.812;2023-05-03T10:35:32;100948.75;;;19.58;31.66
10115;BME280;5097;43.260;27.812;2023-05-03T10:38:18;100956.66;;;19.71;31.72
10115;BME280;5097;43.260;27.812;2023-05-03T10:41:03;100932.06;;;19.77;32.16
10115;BME280;5097;43.260;27.812;2023-05-03T10:43:48;100936.56;;;20.22;30.88
10115;BME280;5097;43.260;27.812;2023-05-03T10:46:33;100967.97;;;19.41;31.14
10115;BME280;5097;43.260;27.812;2023-05-03T10:49:20;100965.94;;;19.79;31.29
10115;BME280;5097;43.260;27.812;2023-05-03T10:52:47;100960.22;;;20.29;31.79
10115;BME280;5097;43.260;27.812;2023-05-03T10:55:31;100955.34;;;21.52;30.32
10115;BME280;5097;43.260;27.812;2023-05-03T10:58:16;100939.41;;;20.97;28.09
10115;BME280;5097;43.260;27.812;2023-05-03T11:01:01;100964.66;;;20.62;30.42
10115;BME280;5097;43.260;27.812;2023-05-03T11:03:50;100927.53;;;20.79;30.78
10115;BME280;5097;43.260;27.812;2023-05-03T11:06:38;100955.22;;;20.13;33.03
10115;BME280;5097;43.260;27.812;2023-05-03T11:09:29;100946.31;;;20.79;30.62
10115;BME280;5097;43.260;27.812;2023-05-03T11:12:14;100906.56;;;20.72;28.40
10115;BME280;5097;43.260;27.812;2023-05-03T11:14:58;100940.94;;;20.79;28.17
10115;BME280;5097;43.260;27.812;2023-05-03T11:17:44;100877.47;;;19.90;28.17
10115;BME280;5097;43.260;27.812;2023-05-03T11:20:29;100947.28;;;20.77;29.05
10115;BME280;5097;43.260;27.812;2023-05-03T11:23:14;100918.91;;;19.52;31.42
10115;BME280;5097;43.260;27.812;2023-05-03T11:25:58;100881.84;;;19.34;31.13
10115;BME280;5097;43.260;27.812;2023-05-03T11:28:43;100940.47;;;19.62;31.69
10115;BME280;5097;43.260;27.812;2023-05-03T11:31:27;100924.09;;;19.42;32.20
10115;BME280;5097;43.260;27.812;2023-05-03T11:34:12;100921.59;;;19.74;30.80
10115;BME280;5097;43.260;27.812;2023-05-03T11:36:57;100929.31;;;19.21;32.85
10115;BME280;5097;43.260;27.812;2023-05-03T11:39:42;100930.84;;;19.93;31.82
10115;BME280;5097;43.260;27.812;2023-05-03T11:42:26;100939.75;;;20.05;32.71
10115;BME280;5097;43.260;27.812;2023-05-03T11:45:10;100934.69;;;20.46;32.44
10115;BME280;5097;43.260;27.812;2023-05-03T11:47:55;100929.91;;;19.83;32.88
10115;BME280;5097;43.260;27.812;2023-05-03T11:50:44;100937.41;;;19.55;33.76
10115;BME280;5097;43.260;27.812;2023-05-03T11:53:28;100945.59;;;19.06;34.60
10115;BME280;5097;43.260;27.812;2023-05-03T11:56:13;100941.31;;;19.62;33.55
10115;BME280;5097;43.260;27.812;2023-05-03T11:59:00;100928.63;;;19.53;33.81
10115;BME280;5097;43.260;27.812;2023-05-03T12:01:44;100929.00;;;19.71;33.55
10115;BME280;5097;43.260;27.812;2023-05-03T12:04:31;100914.53;;;20.07;32.72
10115;BME280;5097;43.260;27.812;2023-05-03T12:07:15;100901.00;;;19.75;32.99
10115;BME280;5097;43.260;27.812;2023-05-03T12:10:12;100891.59;;;18.88;33.69
10115;BME280;5097;43.260;27.812;2023-05-03T12:13:05;100894.69;;;19.06;35.07
10115;BME280;5097;43.260;27.812;2023-05-03T12:15:55;100897.22;;;18.72;35.04
10115;BME280;5097;43.260;27.812;2023-05-03T12:18:54;100906.34;;;19.75;34.26
10115;BME280;5097;43.260;27.812;2023-05-03T12:21:45;100912.84;;;19.95;32.92
10115;BME280;5097;43.260;27.812;2023-05-03T12:24:48;100923.69;;;20.49;32.50
10115;BME280;5097;43.260;27.812;2023-05-03T12:27:35;100927.03;;;19.28;34.30
10115;BME280;5097;43.260;27.812;2023-05-03T12:30:23;100913.00;;;18.64;35.48
10115;BME280;5097;43.260;27.812;2023-05-03T12:33:10;100919.78;;;18.81;35.22
10115;BME280;5097;43.260;27.812;2023-05-03T12:35:57;100919.94;;;18.67;35.58
10115;BME280;5097;43.260;27.812;2023-05-03T12:38:41;100912.56;;;19.64;35.11
10115;BME280;5097;43.260;27.812;2023-05-03T12:41:25;100915.97;;;20.23;33.15
10115;BME280;5097;43.260;27.812;2023-05-03T12:44:14;100925.38;;;20.61;32.31
10115;BME280;5097;43.260;27.812;2023-05-03T12:47:00;100923.78;;;20.03;33.61
10115;BME280;5097;43.260;27.812;2023-05-03T12:49:45;100920.59;;;19.41;35.01
10115;BME280;5097;43.260;27.812;2023-05-03T12:52:33;100911.53;;;19.31;35.51
10115;BME280;5097;43.260;27.812;2023-05-03T12:55:20;100894.16;;;18.90;36.72
10115;BME280;5097;43.260;27.812;2023-05-03T12:58:07;100888.41;;;19.19;36.63
10115;BME280;5097;43.260;27.812;2023-05-03T13:00:54;100884.13;;;18.81;36.16
10115;BME280;5097;43.260;27.812;2023-05-03T13:03:42;100886.13;;;19.59;35.53
10115;BME280;5097;43.260;27.812;2023-05-03T13:06:46;100894.16;;;18.90;36.28
10115;BME280;5097;43.260;27.812;2023-05-03T13:09:40;100886.72;;;19.40;36.47
10115;BME280;5097;43.260;27.812;2023-05-03T13:12:45;100882.97;;;17.73;38.25
10115;BME280;5097;43.260;27.812;2023-05-03T13:15:29;100875.72;;;17.75;38.94
10115;BME280;5097;43.260;27.812;2023-05-03T13:18:12;100876.56;;;17.89;38.94
10115;BME280;5097;43.260;27.812;2023-05-03T13:20:58;100873.88;;;18.02;37.69
10115;BME280;5097;43.260;27.812;2023-05-03T13:23:42;100843.16;;;18.56;37.91
10115;BME280;5097;43.260;27.812;2023-05-03T13:26:43;100822.19;;;19.21;36.57
10115;BME280;5097;43.260;27.812;2023-05-03T13:29:27;100833.00;;;19.31;35.83
10115;BME280;5097;43.260;27.812;2023-05-03T13:32:10;100826.03;;;19.17;36.16
10115;BME280;5097;43.260;27.812;2023-05-03T13:34:55;100831.53;;;19.15;36.04
10115;BME280;5097;43.260;27.812;2023-05-03T13:37:40;100841.47;;;18.06;38.16
10115;BME280;5097;43.260;27.812;2023-05-03T13:40:24;100835.16;;;18.07;38.74
10115;BME280;5097;43.260;27.812;2023-05-03T13:43:08;100846.66;;;18.21;39.25
10115;BME280;5097;43.260;27.812;2023-05-03T13:45:59;100824.41;;;17.83;40.39
10115;BME280;5097;43.260;27.812;2023-05-03T13:48:43;100841.16;;;17.98;39.98
10115;BME280;5097;43.260;27.812;2023-05-03T13:51:27;100831.59;;;17.70;41.26
10115;BME280;5097;43.260;27.812;2023-05-03T13:54:12;100825.25;;;17.84;41.95
10115;BME280;5097;43.260;27.812;2023-05-03T13:56:56;100811.69;;;18.59;41.21
10115;BME280;5097;43.260;27.812;2023-05-03T13:59:41;100817.06;;;19.40;39.51
10115;BME280;5097;43.260;27.812;2023-05-03T14:02:24;100822.25;;;18.61;40.11
10115;BME280;5097;43.260;27.812;2023-05-03T14:05:09;100826.50;;;18.99;40.02
10115;BME280;5097;43.260;27.812;2023-05-03T14:07:53;100827.34;;;18.88;39.94
10115;BME280;5097;43.260;27.812;2023-05-03T14:10:39;100793.56;;;18.03;41.75
10115;BME280;5097;43.260;27.812;2023-05-03T14:13:24;100829.22;;;19.22;40.54
10115;BME280;5097;43.260;27.812;2023-05-03T14:16:14;100821.31;;;19.43;39.00
10115;BME280;5097;43.260;27.812;2023-05-03T14:19:17;100834.56;;;20.01;37.72
10115;BME280;5097;43.260;27.812;2023-05-03T14:22:01;100819.94;;;19.03;37.64
10115;BME280;5097;43.260;27.812;2023-05-03T14:24:46;100795.31;;;18.40;40.01
10115;BME280;5097;43.260;27.812;2023-05-03T14:27:31;100812.00;;;18.55;39.67
10115;BME280;5097;43.260;27.812;2023-05-03T14:30:15;100824.69;;;19.79;37.94